sensor_id;sensor_type;location;lat;lon;timestamp;P1;durP1;ratioP1;P2;durP2;ratioP2
29908;SDS011;36247;51.952;6.146;2022-09-21T00:01:29;6.70;;;4.05;;
29908;SDS011;36247;51.952;6.146;2022-09-21T00:04:00;8.02;;;4.05;;
29908;SDS011;36247;51.952;6.146;2022-09-21T00:06:27;7.72;;;4.78;;
29908;SDS011;36247;51.952;6.146;2022-09-21T00:09:05;7.25;;;4.53;;
29908;SDS011;36247;51.952;6.146;2022-09-21T00:11:37;5.97;;;4.53;;
29908;SDS011;36247;51.952;6.146;2022-09-21T00:14:05;7.80;;;4.32;;
29908;SDS011;36247;51.952;6.146;2022-09-21T00:19:03;8.90;;;4.75;;
29908;SDS011;36247;51.952;6.146;2022-09-21T00:21:30;12.40;;;5.07;;
29908;SDS011;36247;51.952;6.146;2022-09-21T00:23:58;7.85;;;4.85;;
29908;SDS011;36247;51.952;6.146;2022-09-21T00:26:27;9.73;;;4.72;;
29908;SDS011;36247;51.952;6.146;2022-09-21T00:28:57;8.13;;;4.35;;
29908;SDS011;36247;51.952;6.146;2022-09-21T00:31:27;12.90;;;5.95;;
29908;SDS011;36247;51.952;6.146;2022-09-21T00:33:56;6.63;;;4.57;;
29908;SDS011;36247;51.952;6.146;2022-09-21T00:36:23;8.32;;;5.25;;
29908;SDS011;36247;51.952;6.146;2022-09-21T00:38:52;7.13;;;4.80;;
29908;SDS011;36247;51.952;6.146;2022-09-21T00:41:30;7.30;;;3.95;;
29908;SDS011;36247;51.952;6.146;2022-09-21T00:47:05;6.65;;;4.53;;
29908;SDS011;36247;51.952;6.146;2022-09-21T00:49:34;7.65;;;4.53;;
29908;SDS011;36247;51.952;6.146;2022-09-21T00:52:05;15.02;;;5.70;;
29908;SDS011;36247;51.952;6.146;2022-09-21T00:54:37;6.90;;;4.82;;
29908;SDS011;36247;51.952;6.146;2022-09-21T00:57:13;7.65;;;3.55;;
29908;SDS011;36247;51.952;6.146;2022-09-21T00:59:41;7.75;;;4.63;;
29908;SDS011;36247;51.952;6.146;2022-09-21T01:02:09;11.25;;;5.43;;
29908;SDS011;36247;51.952;6.146;2022-09-21T01:04:41;6.38;;;3.78;;
29908;SDS011;36247;51.952;6.146;2022-09-21T01:07:33;5.70;;;3.72;;
29908;SDS011;36247;51.952;6.146;2022-09-21T01:10:00;5.30;;;3.58;;
29908;SDS011;36247;51.952;6.146;2022-09-21T01:12:40;7.90;;;4.78;;
29908;SDS011;36247;51.952;6.146;2022-09-21T01:15:19;6.15;;;3.75;;
29908;SDS011;36247;51.952;6.146;2022-09-21T01:18:04;4.78;;;4.15;;
29908;SDS011;36247;51.952;6.146;2022-09-21T01:29:18;7.80;;;4.65;;
29908;SDS011;36247;51.952;6.146;2022-09-21T01:31:57;7.35;;;4.40;;
29908;SDS011;36247;51.952;6.146;2022-09-21T01:37:32;8.38;;;5.88;;
29908;SDS011;36247;51.952;6.146;2022-09-21T01:40:14;7.35;;;4.25;;
29908;SDS011;36247;51.952;6.146;2022-09-21T01:42:54;10.27;;;4.63;;
29908;SDS011;36247;51.952;6.146;2022-09-21T01:45:37;7.90;;;4.72;;
29908;SDS011;36247;51.952;6.146;2022-09-21T01:48:10;9.05;;;5.75;;
29908;SDS011;36247;51.952;6.146;2022-09-21T01:50:45;5.35;;;3.78;;
29908;SDS011;36247;51.952;6.146;2022-09-21T01:53:30;4.90;;;3.58;;
29908;SDS011;36247;51.952;6.146;2022-09-21T01:56:05;7.68;;;3.70;;
29908;SDS011;36247;51.952;6.146;2022-09-21T01:58:51;4.57;;;3.88;;
29908;SDS011;36247;51.952;6.146;2022-09-21T02:01:22;7.93;;;3.30;;
29908;SDS011;36247;51.952;6.146;2022-09-21T02:03:55;5.78;;;4.00;;
29908;SDS011;36247;51.952;6.146;2022-09-21T02:06:25;5.07;;;3.67;;
29908;SDS011;36247;51.952;6.146;2022-09-21T02:08:53;5.93;;;4.40;;
29908;SDS011;36247;51.952;6.146;2022-09-21T02:11:20;6.40;;;4.50;;
29908;SDS011;36247;51.952;6.146;2022-09-21T02:13:47;6.03;;;3.90;;
29908;SDS011;36247;51.952;6.146;2022-09-21T02:21:50;3.83;;;3.08;;
29908;SDS011;36247;51.952;6.146;2022-09-21T02:27:12;4.30;;;2.92;;
29908;SDS011;36247;51.952;6.146;2022-09-21T02:30:36;2.30;;;2.20;;
29908;SDS011;36247;51.952;6.146;2022-09-21T02:35:43;2.22;;;2.03;;
29908;SDS011;36247;51.952;6.146;2022-09-21T02:38:16;3.10;;;2.63;;
29908;SDS011;36247;51.952;6.146;2022-09-21T02:40:51;3.50;;;3.20;;
29908;SDS011;36247;51.952;6.146;2022-09-21T02:43:26;4.88;;;2.92;;
29908;SDS011;36247;51.952;6.146;2022-09-21T02:46:02;5.45;;;3.85;;
29908;SDS011;36247;51.952;6.146;2022-09-21T02:51:39;6.32;;;3.40;;
29908;SDS011;36247;51.952;6.146;2022-09-21T02:54:13;4.35;;;3.92;;
29908;SDS011;36247;51.952;6.146;2022-09-21T02:56:47;8.85;;;3.83;;
29908;SDS011;36247;51.952;6.146;2022-09-21T02:59:14;6.05;;;3.83;;
29908;SDS011;36247;51.952;6.146;2022-09-21T03:01:42;3.95;;;3.22;;
29908;SDS011;36247;51.952;6.146;2022-09-21T03:04:09;3.05;;;2.75;;
29908;SDS011;36247;51.952;6.146;2022-09-21T03:06:35;3.50;;;3.20;;
29908;SDS011;36247;51.952;6.146;2022-09-21T03:09:01;6.35;;;2.90;;
29908;SDS011;36247;51.952;6.146;2022-09-21T03:11:27;4.30;;;2.97;;
29908;SDS011;36247;51.952;6.146;2022-09-21T03:13:53;4.93;;;2.60;;
29908;SDS011;36247;51.952;6.146;2022-09-21T03:16:22;3.25;;;2.30;;
29908;SDS011;36247;51.952;6.146;2022-09-21T03:18:48;2.53;;;2.33;;
29908;SDS011;36247;51.952;6.146;2022-09-21T03:21:14;2.20;;;2.10;;
29908;SDS011;36247;51.952;6.146;2022-09-21T03:23:40;2.70;;;2.50;;
29908;SDS011;36247;51.952;6.146;2022-09-21T03:26:06;3.97;;;3.15;;
29908;SDS011;36247;51.952;6.146;2022-09-21T03:28:33;5.30;;;3.28;;
29908;SDS011;36247;51.952;6.146;2022-09-21T03:31:03;5.03;;;3.17;;
29908;SDS011;36247;51.952;6.146;2022-09-21T03:33:33;3.22;;;2.83;;
29908;SDS011;36247;51.952;6.146;2022-09-21T03:36:04;3.30;;;2.92;;
29908;SDS011;36247;51.952;6.146;2022-09-21T03:38:30;7.78;;;2.85;;
29908;SDS011;36247;51.952;6.146;2022-09-21T03:40:57;2.60;;;2.40;;
29908;SDS011;36247;51.952;6.146;2022-09-21T03:43:33;3.00;;;1.95;;
29908;SDS011;36247;51.952;6.146;2022-09-21T03:45:59;2.25;;;2.05;;
29908;SDS011;36247;51.952;6.146;2022-09-21T03:48:25;5.70;;;2.53;;
29908;SDS011;36247;51.952;6.146;2022-09-21T03:50:52;4.22;;;2.20;;
29908;SDS011;36247;51.952;6.146;2022-09-21T03:53:21;3.17;;;1.70;;
29908;SDS011;36247;51.952;6.146;2022-09-21T03:55:59;2.55;;;2.35;;
29908;SDS011;36247;51.952;6.146;2022-09-21T03:58:45;2.80;;;2.60;;
29908;SDS011;36247;51.952;6.146;2022-09-21T04:01:11;2.10;;;1.90;;
29908;SDS011;36247;51.952;6.146;2022-09-21T04:03:41;1.83;;;1.73;;
29908;SDS011;36247;51.952;6.146;2022-09-21T04:06:13;2.47;;;2.28;;
29908;SDS011;36247;51.952;6.146;2022-09-21T04:08:39;2.30;;;2.10;;
29908;SDS011;36247;51.952;6.146;2022-09-21T04:11:23;6.00;;;2.90;;
29908;SDS011;36247;51.952;6.146;2022-09-21T04:13:50;8.85;;;2.90;;
29908;SDS011;36247;51.952;6.146;2022-09-21T04:18:48;3.95;;;2.00;;
29908;SDS011;36247;51.952;6.146;2022-09-21T04:21:15;8.38;;;4.32;;
29908;SDS011;36247;51.952;6.146;2022-09-21T04:23:51;6.13;;;4.55;;
29908;SDS011;36247;51.952;6.146;2022-09-21T04:26:28;6.60;;;4.05;;
29908;SDS011;36247;51.952;6.146;2022-09-21T04:29:15;7.95;;;4.45;;
29908;SDS011;36247;51.952;6.146;2022-09-21T04:31:41;4.72;;;3.45;;
29908;SDS011;36247;51.952;6.146;2022-09-21T04:34:12;8.20;;;5.15;;
29908;SDS011;36247;51.952;6.146;2022-09-21T04:36:41;4.90;;;3.28;;
29908;SDS011;36247;51.952;6.146;2022-09-21T04:39:15;5.68;;;2.80;;
29908;SDS011;36247;51.952;6.146;2022-09-21T04:41:47;3.13;;;2.80;;
29908;SDS011;36247;51.952;6.146;2022-09-21T04:44:13;3.17;;;2.78;;
29908;SDS011;36247;51.952;6.146;2022-09-21T04:46:57;5.32;;;4.03;;
29908;SDS011;36247;51.952;6.146;2022-09-21T04:49:26;5.40;;;3.22;;
29908;SDS011;36247;51.952;6.146;2022-09-21T04:51:52;6.60;;;3.33;;
29908;SDS011;36247;51.952;6.146;2022-09-21T04:54:21;5.32;;;3.20;;
29908;SDS011;36247;51.952;6.146;2022-09-21T04:56:47;7.32;;;4.15;;
29908;SDS011;36247;51.952;6.146;2022-09-21T04:59:16;9.98;;;4.80;;
29908;SDS011;36247;51.952;6.146;2022-09-21T05:01:45;6.88;;;3.78;;
29908;SDS011;36247;51.952;6.146;2022-09-21T05:04:14;5.65;;;3.90;;
29908;SDS011;36247;51.952;6.146;2022-09-21T05:06:43;7.38;;;3.83;;
29908;SDS011;36247;51.952;6.146;2022-09-21T05:09:13;5.20;;;3.55;;
29908;SDS011;36247;51.952;6.146;2022-09-21T05:11:57;7.38;;;5.65;;
29908;SDS011;36247;51.952;6.146;2022-09-21T05:14:26;6.40;;;4.03;;
29908;SDS011;36247;51.952;6.146;2022-09-21T05:16:52;7.00;;;3.97;;
29908;SDS011;36247;51.952;6.146;2022-09-21T05:19:21;6.47;;;4.05;;
29908;SDS011;36247;51.952;6.146;2022-09-21T05:21:52;6.82;;;3.65;;
29908;SDS011;36247;51.952;6.146;2022-09-21T05:24:18;7.53;;;3.42;;
29908;SDS011;36247;51.952;6.146;2022-09-21T05:26:47;7.15;;;4.03;;
29908;SDS011;36247;51.952;6.146;2022-09-21T05:29:22;7.72;;;4.45;;
29908;SDS011;36247;51.952;6.146;2022-09-21T05:32:33;6.57;;;3.78;;
29908;SDS011;36247;51.952;6.146;2022-09-21T05:37:56;9.60;;;5.00;;
29908;SDS011;36247;51.952;6.146;2022-09-21T05:40:29;8.00;;;3.95;;
29908;SDS011;36247;51.952;6.146;2022-09-21T05:43:02;5.28;;;3.95;;
29908;SDS011;36247;51.952;6.146;2022-09-21T05:45:41;7.78;;;4.80;;
29908;SDS011;36247;51.952;6.146;2022-09-21T05:48:13;9.10;;;5.32;;
29908;SDS011;36247;51.952;6.146;2022-09-21T05:54:18;9.70;;;5.00;;
29908;SDS011;36247;51.952;6.146;2022-09-21T06:05:44;4.75;;;3.95;;
29908;SDS011;36247;51.952;6.146;2022-09-21T06:08:12;6.78;;;4.70;;
29908;SDS011;36247;51.952;6.146;2022-09-21T06:10:44;4.80;;;3.85;;
29908;SDS011;36247;51.952;6.146;2022-09-21T06:13:14;6.93;;;3.75;;
29908;SDS011;36247;51.952;6.146;2022-09-21T06:15:48;10.50;;;5.18;;
29908;SDS011;36247;51.952;6.146;2022-09-21T06:18:22;16.35;;;5.80;;
29908;SDS011;36247;51.952;6.146;2022-09-21T06:20:52;21.80;;;6.93;;
29908;SDS011;36247;51.952;6.146;2022-09-21T06:23:18;19.80;;;6.95;;
29908;SDS011;36247;51.952;6.146;2022-09-21T06:25:56;11.27;;;5.45;;
29908;SDS011;36247;51.952;6.146;2022-09-21T06:28:25;27.15;;;6.80;;
29908;SDS011;36247;51.952;6.146;2022-09-21T06:30:54;19.80;;;9.25;;
29908;SDS011;36247;51.952;6.146;2022-09-21T06:33:25;21.85;;;9.63;;
29908;SDS011;36247;51.952;6.146;2022-09-21T06:35:55;13.68;;;8.25;;
29908;SDS011;36247;51.952;6.146;2022-09-21T06:38:25;15.15;;;7.68;;
29908;SDS011;36247;51.952;6.146;2022-09-21T06:40:54;10.77;;;7.07;;
29908;SDS011;36247;51.952;6.146;2022-09-21T06:43:25;18.05;;;9.57;;
29908;SDS011;36247;51.952;6.146;2022-09-21T06:45:52;11.35;;;8.10;;
29908;SDS011;36247;51.952;6.146;2022-09-21T06:48:22;12.48;;;6.57;;
29908;SDS011;36247;51.952;6.146;2022-09-21T06:50:48;11.90;;;8.30;;
29908;SDS011;36247;51.952;6.146;2022-09-21T06:53:16;18.13;;;7.93;;
29908;SDS011;36247;51.952;6.146;2022-09-21T06:55:43;11.45;;;8.65;;
29908;SDS011;36247;51.952;6.146;2022-09-21T06:58:12;15.00;;;9.32;;
29908;SDS011;36247;51.952;6.146;2022-09-21T07:00:41;19.85;;;11.07;;
29908;SDS011;36247;51.952;6.146;2022-09-21T07:05:37;14.63;;;11.18;;
29908;SDS011;36247;51.952;6.146;2022-09-21T07:08:11;18.52;;;12.30;;
29908;SDS011;36247;51.952;6.146;2022-09-21T07:10:45;18.27;;;11.85;;
29908;SDS011;36247;51.952;6.146;2022-09-21T07:13:13;18.58;;;10.90;;
29908;SDS011;36247;51.952;6.146;2022-09-21T07:15:42;15.43;;;10.00;;
29908;SDS011;36247;51.952;6.146;2022-09-21T07:18:26;17.77;;;10.25;;
29908;SDS011;36247;51.952;6.146;2022-09-21T07:20:52;17.70;;;9.85;;
29908;SDS011;36247;51.952;6.146;2022-09-21T07:23:22;14.65;;;9.55;;
29908;SDS011;36247;51.952;6.146;2022-09-21T07:25:50;12.23;;;9.00;;
29908;SDS011;36247;51.952;6.146;2022-09-21T07:28:17;17.00;;;9.68;;
29908;SDS011;36247;51.952;6.146;2022-09-21T07:30:44;16.63;;;9.02;;
29908;SDS011;36247;51.952;6.146;2022-09-21T07:33:10;17.90;;;8.98;;
29908;SDS011;36247;51.952;6.146;2022-09-21T07:35:35;15.07;;;9.27;;
29908;SDS011;36247;51.952;6.146;2022-09-21T07:38:02;17.77;;;9.13;;
29908;SDS011;36247;51.952;6.146;2022-09-21T07:40:32;15.23;;;8.13;;
29908;SDS011;36247;51.952;6.146;2022-09-21T07:42:58;15.43;;;7.97;;
29908;SDS011;36247;51.952;6.146;2022-09-21T07:45:27;14.88;;;8.15;;
29908;SDS011;36247;51.952;6.146;2022-09-21T07:47:53;16.88;;;7.65;;
29908;SDS011;36247;51.952;6.146;2022-09-21T07:50:20;15.63;;;8.30;;
29908;SDS011;36247;51.952;6.146;2022-09-21T07:52:46;15.77;;;7.25;;
29908;SDS011;36247;51.952;6.146;2022-09-21T07:55:12;11.70;;;7.47;;
29908;SDS011;36247;51.952;6.146;2022-09-21T07:57:37;10.65;;;7.97;;
29908;SDS011;36247;51.952;6.146;2022-09-21T08:00:22;18.27;;;7.07;;
29908;SDS011;36247;51.952;6.146;2022-09-21T08:02:47;11.25;;;6.40;;
29908;SDS011;36247;51.952;6.146;2022-09-21T08:05:13;10.60;;;6.22;;
29908;SDS011;36247;51.952;6.146;2022-09-21T08:07:39;12.93;;;5.47;;
29908;SDS011;36247;51.952;6.146;2022-09-21T08:10:05;9.25;;;4.30;;
29908;SDS011;36247;51.952;6.146;2022-09-21T08:12:31;10.45;;;5.22;;
29908;SDS011;36247;51.952;6.146;2022-09-21T08:14:56;9.27;;;4.60;;
29908;SDS011;36247;51.952;6.146;2022-09-21T08:17:21;14.48;;;5.85;;
29908;SDS011;36247;51.952;6.146;2022-09-21T08:19:48;12.65;;;4.90;;
29908;SDS011;36247;51.952;6.146;2022-09-21T08:22:14;15.05;;;5.07;;
29908;SDS011;36247;51.952;6.146;2022-09-21T08:24:39;13.88;;;4.78;;
29908;SDS011;36247;51.952;6.146;2022-09-21T08:27:08;14.25;;;4.82;;
29908;SDS011;36247;51.952;6.146;2022-09-21T08:29:34;7.57;;;4.30;;
29908;SDS011;36247;51.952;6.146;2022-09-21T08:32:00;9.45;;;4.47;;
29908;SDS011;36247;51.952;6.146;2022-09-21T08:34:26;6.07;;;4.35;;
29908;SDS011;36247;51.952;6.146;2022-09-21T08:36:52;10.50;;;4.90;;
29908;SDS011;36247;51.952;6.146;2022-09-21T08:39:17;8.45;;;3.35;;
29908;SDS011;36247;51.952;6.146;2022-09-21T08:41:59;8.13;;;3.30;;
29908;SDS011;36247;51.952;6.146;2022-09-21T08:44:42;11.52;;;3.53;;
29908;SDS011;36247;51.952;6.146;2022-09-21T08:47:10;8.43;;;3.38;;
29908;SDS011;36247;51.952;6.146;2022-09-21T08:49:42;14.60;;;3.58;;
29908;SDS011;36247;51.952;6.146;2022-09-21T08:52:15;6.03;;;2.67;;
29908;SDS011;36247;51.952;6.146;2022-09-21T09:09:51;6.03;;;2.67;;
29908;SDS011;36247;51.952;6.146;2022-09-21T09:20:15;8.50;;;2.83;;
29908;SDS011;36247;51.952;6.146;2022-09-21T09:26:57;6.32;;;2.05;;
29908;SDS011;36247;51.952;6.146;2022-09-21T09:30:07;9.20;;;2.85;;
29908;SDS011;36247;51.952;6.146;2022-09-21T09:36:15;8.77;;;2.22;;
29908;SDS011;36247;51.952;6.146;2022-09-21T09:39:33;8.85;;;2.38;;
29908;SDS011;36247;51.952;6.146;2022-09-21T09:50:27;6.70;;;2.25;;
29908;SDS011;36247;51.952;6.146;2022-09-21T10:00:56;6.38;;;1.90;;
29908;SDS011;36247;51.952;6.146;2022-09-21T10:10:47;4.60;;;1.90;;
29908;SDS011;36247;51.952;6.146;2022-09-21T10:17:18;8.43;;;2.20;;
29908;SDS011;36247;51.952;6.146;2022-09-21T10:20:40;5.05;;;2.13;;
29908;SDS011;36247;51.952;6.146;2022-09-21T10:24:06;7.82;;;2.10;;
29908;SDS011;36247;51.952;6.146;2022-09-21T10:27:24;5.28;;;1.65;;
29908;SDS011;36247;51.952;6.146;2022-09-21T10:38:29;4.68;;;1.40;;
29908;SDS011;36247;51.952;6.146;2022-09-21T10:41:55;4.18;;;1.50;;
29908;SDS011;36247;51.952;6.146;2022-09-21T10:48:49;8.20;;;1.95;;
29908;SDS011;36247;51.952;6.146;2022-09-21T11:03:00;8.82;;;1.95;;
29908;SDS011;36247;51.952;6.146;2022-09-21T11:10:08;7.18;;;1.98;;
29908;SDS011;36247;51.952;6.146;2022-09-21T11:13:46;4.43;;;1.75;;
29908;SDS011;36247;51.952;6.146;2022-09-21T11:21:25;4.90;;;1.10;;
29908;SDS011;36247;51.952;6.146;2022-09-21T11:28:53;4.00;;;1.20;;
29908;SDS011;36247;51.952;6.146;2022-09-21T11:32:24;3.30;;;1.20;;
29908;SDS011;36247;51.952;6.146;2022-09-21T12:00:43;19.40;;;1.70;;
29908;SDS011;36247;51.952;6.146;2022-09-21T12:28:57;4.10;;;1.02;;
29908;SDS011;36247;51.952;6.146;2022-09-21T12:46:48;4.60;;;1.13;;
29908;SDS011;36247;51.952;6.146;2022-09-21T13:23:04;4.18;;;1.30;;
29908;SDS011;36247;51.952;6.146;2022-09-21T13:49:39;4.13;;;1.17;;
29908;SDS011;36247;51.952;6.146;2022-09-21T14:10:15;5.53;;;1.42;;
29908;SDS011;36247;51.952;6.146;2022-09-21T14:13:39;2.78;;;1.17;;
29908;SDS011;36247;51.952;6.146;2022-09-21T14:38:12;2.00;;;0.80;;
29908;SDS011;36247;51.952;6.146;2022-09-21T14:41:22;7.22;;;1.80;;
29908;SDS011;36247;51.952;6.146;2022-09-21T14:47:51;2.88;;;1.08;;
29908;SDS011;36247;51.952;6.146;2022-09-21T14:54:39;1.37;;;0.83;;
29908;SDS011;36247;51.952;6.146;2022-09-21T15:00:47;2.40;;;1.17;;
29908;SDS011;36247;51.952;6.146;2022-09-21T15:07:47;6.05;;;1.80;;
29908;SDS011;36247;51.952;6.146;2022-09-21T15:21:29;4.05;;;0.95;;
29908;SDS011;36247;51.952;6.146;2022-09-21T15:31:49;2.28;;;1.20;;
29908;SDS011;36247;51.952;6.146;2022-09-21T15:34:45;2.40;;;1.27;;
29908;SDS011;36247;51.952;6.146;2022-09-21T15:38:27;3.90;;;1.15;;
29908;SDS011;36247;51.952;6.146;2022-09-21T15:41:46;3.85;;;1.48;;
29908;SDS011;36247;51.952;6.146;2022-09-21T15:44:31;3.28;;;1.00;;
29908;SDS011;36247;51.952;6.146;2022-09-21T15:47:58;2.75;;;0.77;;
29908;SDS011;36247;51.952;6.146;2022-09-21T15:55:18;3.40;;;1.05;;
29908;SDS011;36247;51.952;6.146;2022-09-21T15:58:44;3.45;;;1.17;;
29908;SDS011;36247;51.952;6.146;2022-09-21T16:01:27;4.97;;;1.05;;
29908;SDS011;36247;51.952;6.146;2022-09-21T16:04:34;1.48;;;0.70;;
29908;SDS011;36247;51.952;6.146;2022-09-21T16:07:39;2.30;;;0.80;;
29908;SDS011;36247;51.952;6.146;2022-09-21T16:10:48;3.70;;;1.08;;
29908;SDS011;36247;51.952;6.146;2022-09-21T16:17:56;2.70;;;1.10;;
29908;SDS011;36247;51.952;6.146;2022-09-21T16:21:44;6.13;;;1.80;;
29908;SDS011;36247;51.952;6.146;2022-09-21T16:28:54;2.95;;;1.10;;
29908;SDS011;36247;51.952;6.146;2022-09-21T16:35:31;2.17;;;1.00;;
29908;SDS011;36247;51.952;6.146;2022-09-21T16:38:22;2.10;;;1.05;;
29908;SDS011;36247;51.952;6.146;2022-09-21T16:41:09;2.45;;;1.25;;
29908;SDS011;36247;51.952;6.146;2022-09-21T16:44:02;3.08;;;1.92;;
29908;SDS011;36247;51.952;6.146;2022-09-21T16:46:55;4.82;;;2.13;;
29908;SDS011;36247;51.952;6.146;2022-09-21T16:49:47;6.30;;;2.63;;
29908;SDS011;36247;51.952;6.146;2022-09-21T16:53:07;3.65;;;1.92;;
29908;SDS011;36247;51.952;6.146;2022-09-21T16:56:01;5.03;;;1.38;;
29908;SDS011;36247;51.952;6.146;2022-09-21T17:05:02;2.33;;;1.08;;
29908;SDS011;36247;51.952;6.146;2022-09-21T17:07:41;3.20;;;1.20;;
29908;SDS011;36247;51.952;6.146;2022-09-21T17:10:34;8.40;;;1.60;;
29908;SDS011;36247;51.952;6.146;2022-09-21T17:16:17;5.15;;;1.58;;
29908;SDS011;36247;51.952;6.146;2022-09-21T17:19:04;5.43;;;1.55;;
29908;SDS011;36247;51.952;6.146;2022-09-21T17:21:42;4.10;;;1.80;;
29908;SDS011;36247;51.952;6.146;2022-09-21T17:24:23;4.95;;;2.50;;
29908;SDS011;36247;51.952;6.146;2022-09-21T17:27:14;6.03;;;2.08;;
29908;SDS011;36247;51.952;6.146;2022-09-21T17:30:14;4.43;;;1.80;;
29908;SDS011;36247;51.952;6.146;2022-09-21T17:32:56;5.68;;;2.13;;
29908;SDS011;36247;51.952;6.146;2022-09-21T17:35:38;6.22;;;2.40;;
29908;SDS011;36247;51.952;6.146;2022-09-21T17:38:34;3.30;;;1.63;;
29908;SDS011;36247;51.952;6.146;2022-09-21T17:42:00;6.97;;;1.60;;
29908;SDS011;36247;51.952;6.146;2022-09-21T17:50:53;4.25;;;1.42;;
29908;SDS011;36247;51.952;6.146;2022-09-21T17:54:07;3.08;;;1.70;;
29908;SDS011;36247;51.952;6.146;2022-09-21T17:56:46;3.42;;;1.40;;
29908;SDS011;36247;51.952;6.146;2022-09-21T17:59:30;13.13;;;2.25;;
29908;SDS011;36247;51.952;6.146;2022-09-21T18:02:20;4.20;;;1.35;;
29908;SDS011;36247;51.952;6.146;2022-09-21T18:05:26;3.38;;;1.50;;
29908;SDS011;36247;51.952;6.146;2022-09-21T18:08:01;3.15;;;1.77;;
29908;SDS011;36247;51.952;6.146;2022-09-21T18:10:48;3.80;;;1.40;;
29908;SDS011;36247;51.952;6.146;2022-09-21T18:13:44;2.38;;;1.35;;
29908;SDS011;36247;51.952;6.146;2022-09-21T18:26:01;4.57;;;1.85;;
29908;SDS011;36247;51.952;6.146;2022-09-21T18:28:50;5.53;;;1.83;;
29908;SDS011;36247;51.952;6.146;2022-09-21T18:31:42;2.90;;;1.60;;
29908;SDS011;36247;51.952;6.146;2022-09-21T18:40:53;4.03;;;1.88;;
29908;SDS011;36247;51.952;6.146;2022-09-21T18:44:02;8.73;;;3.30;;
29908;SDS011;36247;51.952;6.146;2022-09-21T18:46:55;3.97;;;2.10;;
29908;SDS011;36247;51.952;6.146;2022-09-21T18:53:08;12.10;;;4.32;;
29908;SDS011;36247;51.952;6.146;2022-09-21T18:59:34;8.73;;;3.97;;
29908;SDS011;36247;51.952;6.146;2022-09-21T19:02:17;9.60;;;3.97;;
29908;SDS011;36247;51.952;6.146;2022-09-21T19:05:09;5.38;;;3.10;;
29908;SDS011;36247;51.952;6.146;2022-09-21T19:08:09;7.60;;;4.28;;
29908;SDS011;36247;51.952;6.146;2022-09-21T19:20:40;9.40;;;4.60;;
29908;SDS011;36247;51.952;6.146;2022-09-21T19:32:46;6.60;;;4.43;;
29908;SDS011;36247;51.952;6.146;2022-09-21T19:38:36;9.23;;;3.47;;
29908;SDS011;36247;51.952;6.146;2022-09-21T19:44:36;4.78;;;3.20;;
29908;SDS011;36247;51.952;6.146;2022-09-21T19:47:39;6.55;;;3.15;;
29908;SDS011;36247;51.952;6.146;2022-09-21T19:50:38;7.28;;;3.00;;
29908;SDS011;36247;51.952;6.146;2022-09-21T19:53:25;7.68;;;3.45;;
29908;SDS011;36247;51.952;6.146;2022-09-21T19:56:13;9.95;;;3.60;;
29908;SDS011;36247;51.952;6.146;2022-09-21T19:59:07;5.32;;;3.72;;
29908;SDS011;36247;51.952;6.146;2022-09-21T20:02:04;5.50;;;3.47;;
29908;SDS011;36247;51.952;6.146;2022-09-21T20:05:03;10.18;;;3.67;;
29908;SDS011;36247;51.952;6.146;2022-09-21T20:13:58;6.93;;;3.13;;
29908;SDS011;36247;51.952;6.146;2022-09-21T20:22:17;4.00;;;3.22;;
29908;SDS011;36247;51.952;6.146;2022-09-21T20:24:57;4.95;;;3.30;;
29908;SDS011;36247;51.952;6.146;2022-09-21T20:27:43;4.47;;;3.30;;
29908;SDS011;36247;51.952;6.146;2022-09-21T20:30:28;3.45;;;3.10;;
29908;SDS011;36247;51.952;6.146;2022-09-21T20:32:58;7.05;;;4.07;;
29908;SDS011;36247;51.952;6.146;2022-09-21T20:35:30;5.28;;;3.20;;
29908;SDS011;36247;51.952;6.146;2022-09-21T20:37:58;5.20;;;3.53;;
29908;SDS011;36247;51.952;6.146;2022-09-21T20:40:34;5.03;;;3.28;;
29908;SDS011;36247;51.952;6.146;2022-09-21T20:43:17;4.55;;;3.35;;
29908;SDS011;36247;51.952;6.146;2022-09-21T20:45:55;5.80;;;3.47;;
29908;SDS011;36247;51.952;6.146;2022-09-21T20:48:30;4.85;;;3.55;;
29908;SDS011;36247;51.952;6.146;2022-09-21T20:51:02;7.65;;;3.45;;
29908;SDS011;36247;51.952;6.146;2022-09-21T20:53:45;7.35;;;2.85;;
29908;SDS011;36247;51.952;6.146;2022-09-21T20:56:16;4.07;;;2.90;;
29908;SDS011;36247;51.952;6.146;2022-09-21T20:58:43;4.18;;;3.05;;
29908;SDS011;36247;51.952;6.146;2022-09-21T21:01:16;7.15;;;4.03;;
29908;SDS011;36247;51.952;6.146;2022-09-21T21:03:48;9.90;;;3.78;;
29908;SDS011;36247;51.952;6.146;2022-09-21T21:06:18;6.28;;;3.75;;
29908;SDS011;36247;51.952;6.146;2022-09-21T21:08:47;8.55;;;4.80;;
29908;SDS011;36247;51.952;6.146;2022-09-21T21:11:15;5.25;;;3.63;;
29908;SDS011;36247;51.952;6.146;2022-09-21T21:13:42;5.78;;;3.78;;
29908;SDS011;36247;51.952;6.146;2022-09-21T21:16:15;5.45;;;4.10;;
29908;SDS011;36247;51.952;6.146;2022-09-21T21:18:50;6.20;;;3.70;;
29908;SDS011;36247;51.952;6.146;2022-09-21T21:21:28;7.50;;;4.43;;
29908;SDS011;36247;51.952;6.146;2022-09-21T21:24:05;6.15;;;4.30;;
29908;SDS011;36247;51.952;6.146;2022-09-21T21:27:00;3.42;;;3.05;;
29908;SDS011;36247;51.952;6.146;2022-09-21T21:29:33;4.90;;;3.45;;
29908;SDS011;36247;51.952;6.146;2022-09-21T21:32:12;5.78;;;4.20;;
29908;SDS011;36247;51.952;6.146;2022-09-21T21:34:51;7.85;;;3.60;;
29908;SDS011;36247;51.952;6.146;2022-09-21T21:37:22;9.30;;;4.40;;
29908;SDS011;36247;51.952;6.146;2022-09-21T21:40:10;3.60;;;3.30;;
29908;SDS011;36247;51.952;6.146;2022-09-21T21:42:58;9.30;;;3.40;;
29908;SDS011;36247;51.952;6.146;2022-09-21T21:45:25;4.50;;;3.15;;
29908;SDS011;36247;51.952;6.146;2022-09-21T21:47:52;4.70;;;3.38;;
29908;SDS011;36247;51.952;6.146;2022-09-21T21:50:34;4.80;;;3.92;;
29908;SDS011;36247;51.952;6.146;2022-09-21T21:53:04;5.80;;;3.75;;
29908;SDS011;36247;51.952;6.146;2022-09-21T21:55:33;5.50;;;4.75;;
29908;SDS011;36247;51.952;6.146;2022-09-21T21:57:59;6.30;;;3.00;;
29908;SDS011;36247;51.952;6.146;2022-09-21T22:00:29;7.85;;;3.60;;
29908;SDS011;36247;51.952;6.146;2022-09-21T22:03:08;7.60;;;3.70;;
29908;SDS011;36247;51.952;6.146;2022-09-21T22:06:07;8.93;;;4.15;;
29908;SDS011;36247;51.952;6.146;2022-09-21T22:08:42;5.20;;;4.38;;
29908;SDS011;36247;51.952;6.146;2022-09-21T22:11:19;5.88;;;3.67;;
29908;SDS011;36247;51.952;6.146;2022-09-21T22:13:56;5.35;;;4.13;;
29908;SDS011;36247;51.952;6.146;2022-09-21T22:19:12;13.07;;;6.50;;
29908;SDS011;36247;51.952;6.146;2022-09-21T22:21:56;6.82;;;5.07;;
29908;SDS011;36247;51.952;6.146;2022-09-21T22:24:28;6.95;;;4.47;;
29908;SDS011;36247;51.952;6.146;2022-09-21T22:27:03;5.03;;;4.00;;
29908;SDS011;36247;51.952;6.146;2022-09-21T22:29:48;7.20;;;4.47;;
29908;SDS011;36247;51.952;6.146;2022-09-21T22:32:26;9.48;;;5.03;;
29908;SDS011;36247;51.952;6.146;2022-09-21T22:35:00;14.13;;;5.18;;
29908;SDS011;36247;51.952;6.146;2022-09-21T22:37:38;14.35;;;5.78;;
29908;SDS011;36247;51.952;6.146;2022-09-21T22:40:26;8.23;;;5.30;;
29908;SDS011;36247;51.952;6.146;2022-09-21T22:42:55;5.80;;;4.80;;
29908;SDS011;36247;51.952;6.146;2022-09-21T22:45:33;12.20;;;5.00;;
29908;SDS011;36247;51.952;6.146;2022-09-21T22:48:02;5.10;;;4.13;;
29908;SDS011;36247;51.952;6.146;2022-09-21T22:50:33;5.32;;;3.67;;
29908;SDS011;36247;51.952;6.146;2022-09-21T22:53:17;5.07;;;3.80;;
29908;SDS011;36247;51.952;6.146;2022-09-21T22:56:06;3.72;;;3.40;;
29908;SDS011;36247;51.952;6.146;2022-09-21T22:58:38;4.85;;;3.83;;
29908;SDS011;36247;51.952;6.146;2022-09-21T23:01:14;4.07;;;3.38;;
29908;SDS011;36247;51.952;6.146;2022-09-21T23:04:01;7.47;;;4.75;;
29908;SDS011;36247;51.952;6.146;2022-09-21T23:06:40;6.32;;;4.38;;
29908;SDS011;36247;51.952;6.146;2022-09-21T23:09:10;6.28;;;4.63;;
29908;SDS011;36247;51.952;6.146;2022-09-21T23:11:45;6.15;;;4.50;;
29908;SDS011;36247;51.952;6.146;2022-09-21T23:14:19;10.68;;;4.35;;